Time;durP1;ratioP1;P1;durP2;ratioP2;P2;SDS_P1;SDS_P2;PMS_P1;PMS_P2;Temp;Humidity;BMP_temperature;BMP_pressure;BME280_temperature;BME280_humidity;BME280_pressure;Samples;Min_cycle;Max_cycle;Signal;HPM_P1;HPM_P2
2022/11/01 00:01:40;;;;;;;17.13;8.73;;;12.30;99.90;;;11.48;100.00;97325.00;5090220;28;20445;-75
2022/11/01 00:04:07;;;;;;;17.88;8.38;;;12.40;99.90;;;11.57;100.00;97328.75;5090997;28;20812;-75
2022/11/01 00:06:34;;;;;;;22.45;8.57;;;12.40;99.90;;;11.64;100.00;97331.97;5091575;28;20417;-75
2022/11/01 00:09:00;;;;;;;18.45;7.70;;;12.50;99.90;;;11.74;100.00;97331.19;5091353;28;20476;-76
2022/11/01 00:11:27;;;;;;;20.83;8.45;;;12.60;99.90;;;11.85;100.00;97325.69;5091373;28;20772;-75
2022/11/01 00:13:53;;;;;;;17.17;7.60;;;12.70;99.90;;;11.88;100.00;97327.81;5090759;28;20906;-75
2022/11/01 00:16:20;;;;;;;16.38;7.78;;;12.80;99.90;;;11.90;100.00;97309.00;5091194;28;20394;-75
2022/11/01 00:18:46;;;;;;;16.15;7.80;;;12.80;99.90;;;11.92;100.00;97312.19;5091238;28;20484;-75
2022/11/01 00:21:13;;;;;;;14.52;7.53;;;12.80;99.90;;;11.93;100.00;97309.28;5091295;28;20446;-75
2022/11/01 00:23:39;;;;;;;15.82;7.20;;;12.80;99.90;;;12.00;100.00;97306.38;5090657;28;20426;-75
2022/11/01 00:26:06;;;;;;;21.35;7.45;;;12.80;99.90;;;11.96;100.00;97300.78;5090992;28;20832;-75
2022/11/01 00:28:33;;;;;;;11.98;6.68;;;12.80;99.90;;;11.96;100.00;97305.28;5091024;28;20429;-75
2022/11/01 00:31:00;;;;;;;13.30;6.32;;;12.80;99.90;;;11.93;100.00;97306.63;5090996;28;20410;-74
2022/11/01 00:33:26;;;;;;;16.55;7.35;;;12.80;99.90;;;11.91;100.00;97308.75;5090597;28;20424;-75
2022/11/01 00:35:52;;;;;;;13.25;6.68;;;12.80;99.90;;;11.90;100.00;97309.00;5091010;28;20497;-75
2022/11/01 00:38:18;;;;;;;15.70;7.32;;;12.80;99.90;;;11.87;100.00;97317.50;5090688;28;20712;-75
2022/11/01 00:40:44;;;;;;;17.40;7.80;;;12.70;99.90;;;11.93;100.00;97322.53;5090708;28;20402;-75
2022/11/01 00:43:11;;;;;;;17.75;7.40;;;12.80;99.90;;;11.93;100.00;97319.09;5090282;28;20401;-75
2022/11/01 00:45:41;;;;;;;12.60;6.80;;;12.80;99.90;;;11.90;100.00;97328.38;5090745;28;20530;-75
2022/11/01 00:48:07;;;;;;;13.18;7.03;;;12.80;99.90;;;11.87;100.00;97328.91;5090701;28;20398;-75
2022/11/01 00:50:33;;;;;;;14.50;8.10;;;12.70;99.90;;;11.87;100.00;97328.09;5090624;28;20413;-75
2022/11/01 00:52:59;;;;;;;17.67;8.23;;;12.70;99.90;;;11.88;100.00;97322.50;5090163;28;20394;-75
2022/11/01 00:55:25;;;;;;;12.00;6.82;;;12.70;99.90;;;11.89;100.00;97315.34;5090486;28;20398;-75
2022/11/01 00:57:50;;;;;;;12.43;6.57;;;12.80;99.90;;;11.87;100.00;97325.44;5090610;28;20406;-75
2022/11/01 01:00:17;;;;;;;14.13;7.88;;;12.70;99.90;;;11.87;100.00;97320.16;5090644;28;20406;-75
2022/11/01 01:02:44;;;;;;;16.15;8.88;;;12.70;99.90;;;11.82;100.00;97328.88;5090223;28;20489;-76
2022/11/01 01:05:10;;;;;;;16.77;7.75;;;12.70;99.90;;;11.83;100.00;97321.72;5090310;28;20398;-75
2022/11/01 01:07:36;;;;;;;19.10;6.80;;;12.70;99.90;;;11.88;100.00;97327.81;5090631;28;20405;-75
2022/11/01 01:10:03;;;;;;;14.68;7.22;;;12.70;99.90;;;11.87;100.00;97314.84;5090530;28;20470;-75
2022/11/01 01:12:29;;;;;;;18.55;6.88;;;12.70;99.90;;;11.91;100.00;97323.84;5090239;28;20809;-75
2022/11/01 01:14:55;;;;;;;12.83;6.90;;;12.70;99.90;;;11.91;100.00;97321.19;5090057;28;20497;-75
2022/11/01 01:17:21;;;;;;;21.98;7.35;;;12.80;99.90;;;11.95;100.00;97323.06;5090473;28;20406;-75
2022/11/01 01:19:48;;;;;;;15.80;6.68;;;12.80;99.90;;;11.93;100.00;97316.44;5090424;28;20405;-76
2022/11/01 01:22:14;;;;;;;21.33;7.93;;;12.80;99.90;;;11.97;100.00;97315.66;5090354;28;20412;-75
2022/11/01 01:24:44;;;;;;;18.43;6.40;;;12.80;99.90;;;11.99;100.00;97307.44;5088604;28;20818;-76
2022/11/01 01:27:11;;;;;;;21.80;7.05;;;12.90;99.90;;;12.05;100.00;97322.31;5090401;28;20405;-76
2022/11/01 01:29:40;;;;;;;18.52;6.38;;;12.90;99.90;;;12.08;100.00;97311.19;5090257;28;20478;-76
2022/11/01 01:32:07;;;;;;;15.05;6.55;;;12.90;99.90;;;12.13;100.00;97310.38;5090352;28;20394;-76
2022/11/01 01:34:32;;;;;;;12.45;5.97;;;13.00;99.90;;;12.23;100.00;97302.44;5089932;28;20456;-75
2022/11/01 01:37:00;;;;;;;14.88;6.03;;;13.00;99.90;;;12.23;100.00;97303.25;5090310;28;20406;-76
2022/11/01 01:39:25;;;;;;;17.70;6.25;;;13.10;99.90;;;12.20;100.00;97303.75;5090251;28;20741;-76
2022/11/01 01:41:57;;;;;;;13.27;5.65;;;13.10;99.90;;;12.21;100.00;97300.06;5090243;28;20463;-75
2022/11/01 01:45:27;;;;;;;15.38;6.47;;;13.00;99.90;;;12.17;100.00;97309.59;5089729;28;20421;-76
2022/11/01 01:47:58;;;;;;;15.15;5.70;;;13.00;99.90;;;12.16;100.00;97309.88;5008181;28;20404;-75
2022/11/01 01:50:31;;;;;;;13.95;6.10;;;13.00;99.90;;;12.17;100.00;97300.84;5008010;28;20424;-75
2022/11/01 01:53:04;;;;;;;13.73;5.78;;;13.00;99.90;;;12.11;100.00;97305.31;5071585;28;20402;-76
2022/11/01 01:55:35;;;;;;;14.85;6.90;;;13.00;99.90;;;12.15;100.00;97306.41;5094024;28;20398;-76
2022/11/01 01:58:02;;;;;;;13.82;6.40;;;13.00;99.90;;;12.13;100.00;97302.41;5094113;28;20398;-76
2022/11/01 02:00:28;;;;;;;11.90;5.57;;;13.00;99.90;;;12.16;100.00;97304.56;5094040;28;20485;-76
2022/11/01 02:02:54;;;;;;;13.00;6.10;;;13.00;99.90;;;12.13;100.00;97315.69;5093410;28;20547;-76
2022/11/01 02:05:32;;;;;;;15.15;5.78;;;13.00;99.90;;;12.09;100.00;97319.94;5092440;28;20775;-76
2022/11/01 02:08:00;;;;;;;17.30;5.82;;;13.00;99.90;;;12.08;100.00;97313.84;5093933;28;20490;-75
2022/11/01 02:10:27;;;;;;;16.05;6.82;;;13.00;99.90;;;12.06;100.00;97313.28;5093699;28;20497;-75
2022/11/01 02:12:55;;;;;;;16.55;6.13;;;12.90;99.90;;;12.07;100.00;97319.38;5109639;22;20443;-82
2022/11/01 02:15:28;;;;;;;13.55;6.07;;;12.90;99.90;;;12.09;100.00;97317.28;5113952;28;20761;-82
2022/11/01 02:18:09;;;;;;;9.03;5.70;;;12.90;99.90;;;12.12;100.00;97309.56;5114135;28;20846;-82
2022/11/01 02:21:51;;;;;;;25.80;6.60;;;12.90;99.90;;;12.14;100.00;97314.63;5114024;28;20392;-82
2022/11/01 02:25:08;;;;;;;11.85;5.40;;;13.00;99.90;;;12.08;100.00;97315.69;5046767;28;20413;-82
2022/11/01 02:27:56;;;;;;;10.80;5.97;;;12.90;99.90;;;12.07;100.00;97306.94;5055291;28;20401;-82
2022/11/01 02:30:23;;;;;;;14.77;5.93;;;12.90;99.90;;;12.06;100.00;97307.19;5113744;28;20423;-82
2022/11/01 02:33:12;;;;;;;9.60;5.03;;;12.90;99.90;;;12.09;100.00;97315.44;5113351;28;20483;-82
2022/11/01 02:35:47;;;;;;;12.88;5.78;;;12.90;99.90;;;12.07;100.00;97312.22;5113632;28;20402;-82
2022/11/01 02:38:27;;;;;;;10.75;5.43;;;12.90;99.90;;;12.06;100.00;97299.22;5113702;28;20812;-82
2022/11/01 02:41:02;;;;;;;18.95;6.38;;;12.90;99.90;;;12.05;100.00;97302.94;5113488;28;20404;-82
2022/11/01 02:43:34;;;;;;;16.20;6.18;;;12.90;99.90;;;12.04;100.00;97312.75;5113047;28;20761;-82
2022/11/01 02:46:59;;;;;;;12.67;5.97;;;12.90;99.90;;;12.04;100.00;97312.75;5113545;28;20982;-82
2022/11/01 02:48:54;;;;;;;16.20;6.82;;;12.90;99.90;;;12.01;100.00;97324.69;5113281;28;20765;-82
2022/11/01 02:51:22;;;;;;;17.55;5.88;;;12.90;99.90;;;12.05;100.00;97324.16;5111995;28;20408;-82
2022/11/01 02:53:48;;;;;;;10.65;5.85;;;12.90;99.90;;;12.06;100.00;97334.50;5112856;28;20403;-82
2022/11/01 02:56:16;;;;;;;16.90;6.60;;;12.90;99.90;;;12.10;100.00;97335.59;5113226;28;20392;-82
2022/11/01 02:58:44;;;;;;;13.68;6.13;;;13.00;99.90;;;12.07;100.00;97332.66;5113301;28;20392;-82
2022/11/01 03:01:14;;;;;;;13.07;5.68;;;12.90;99.90;;;12.05;100.00;97324.94;5113267;28;20862;-82
2022/11/01 03:03:44;;;;;;;11.65;5.70;;;12.90;99.90;;;12.06;100.00;97328.41;5112432;28;20392;-82
2022/11/01 03:06:20;;;;;;;11.50;6.00;;;12.90;99.90;;;12.06;100.00;97317.78;5113004;28;20727;-82
2022/11/01 03:08:50;;;;;;;14.17;5.97;;;12.90;99.90;;;12.04;100.00;97323.34;5112982;28;20415;-82
2022/11/01 03:11:19;;;;;;;15.15;5.95;;;12.90;99.90;;;12.04;100.00;97320.69;5112982;28;20431;-82
2022/11/01 03:13:59;;;;;;;12.88;6.00;;;12.90;99.90;;;12.03;100.00;97325.22;5111054;28;20405;-82
2022/11/01 03:16:33;;;;;;;10.45;5.68;;;12.90;99.90;;;12.01;100.00;97327.34;5112887;28;20475;-82
2022/11/01 03:19:09;;;;;;;16.30;6.47;;;12.90;99.90;;;12.05;100.00;97327.59;5112962;28;20396;-82
2022/11/01 03:21:40;;;;;;;15.65;6.35;;;12.90;99.90;;;12.02;100.00;97331.59;5112946;28;20389;-82
2022/11/01 03:24:21;;;;;;;12.52;5.78;;;12.90;99.90;;;12.02;100.00;97339.56;5112370;28;20399;-82
2022/11/01 03:26:57;;;;;;;12.73;5.72;;;12.90;99.90;;;12.02;100.00;97346.72;5112704;28;20400;-82
2022/11/01 03:29:25;;;;;;;9.30;5.57;;;12.90;99.90;;;12.02;100.00;97344.88;5112771;28;20408;-82
2022/11/01 03:31:53;;;;;;;9.77;5.60;;;12.90;99.90;;;12.02;100.00;97349.38;5112842;28;20420;-82
2022/11/01 03:34:20;;;;;;;21.58;6.28;;;12.90;99.90;;;12.00;100.00;97354.13;5112211;28;20807;-82
2022/11/01 03:36:51;;;;;;;12.77;6.28;;;12.80;99.90;;;11.99;100.00;97356.00;5112472;28;20769;-82
2022/11/01 03:39:22;;;;;;;12.05;5.90;;;12.90;99.90;;;12.01;100.00;97353.88;5112609;28;20395;-82
2022/11/01 03:41:54;;;;;;;10.60;5.85;;;12.90;99.90;;;12.02;100.00;97367.94;5112540;28;20399;-81
2022/11/01 03:44:20;;;;;;;10.93;5.70;;;12.90;99.90;;;12.02;100.00;97366.09;5112036;28;20388;-82
2022/11/01 03:46:46;;;;;;;17.08;5.60;;;12.90;99.90;;;12.03;100.00;97366.84;5112306;28;20456;-82
2022/11/01 03:49:16;;;;;;;9.73;5.20;;;12.90;99.90;;;12.05;100.00;97371.91;5112393;28;20407;-81
2022/11/01 03:51:42;;;;;;;21.83;6.07;;;12.90;99.90;;;12.01;100.00;97376.97;5112277;28;20449;-82
2022/11/01 03:54:09;;;;;;;12.35;5.65;;;12.90;99.90;;;12.00;100.00;97381.47;5111717;28;20827;-82
2022/11/01 03:56:35;;;;;;;10.50;5.60;;;12.80;99.90;;;12.00;100.00;97378.00;5112049;28;20877;-82
2022/11/01 03:59:01;;;;;;;9.53;5.23;;;12.80;99.90;;;12.00;100.00;97381.47;5112135;28;20427;-82
2022/11/01 04:01:27;;;;;;;11.25;6.00;;;12.90;99.90;;;12.00;100.00;97386.78;5110731;28;20576;-82
2022/11/01 04:03:53;;;;;;;14.77;6.00;;;12.90;99.90;;;12.02;100.00;97397.94;5111508;28;20392;-82
2022/11/01 04:06:19;;;;;;;10.18;5.40;;;12.90;99.90;;;12.02;100.00;97389.97;5111884;28;20400;-82
2022/11/01 04:08:45;;;;;;;19.60;6.38;;;12.90;99.90;;;12.09;100.00;97399.53;5111851;28;20428;-82
2022/11/01 04:11:12;;;;;;;14.20;5.63;;;12.90;99.90;;;12.08;100.00;97406.69;5110617;28;20431;-82
2022/11/01 04:13:38;;;;;;;16.17;5.05;;;13.00;99.90;;;12.13;100.00;97404.03;5110526;28;20400;-82
2022/11/01 04:21:34;;;;;;;12.05;5.03;;;13.10;99.90;;;12.46;100.00;97399.38;5111806;28;20392;-82
2022/11/01 04:23:59;;;;;;;14.63;4.95;;;13.30;99.90;;;12.55;100.00;97403.13;5111175;28;20389;-82
2022/11/01 04:26:27;;;;;;;12.57;5.15;;;13.30;99.90;;;12.56;100.00;97402.84;5111408;28;20401;-81
2022/11/01 04:28:55;;;;;;;11.90;4.50;;;13.30;99.90;;;12.55;100.00;97408.44;5111581;28;20559;-82
2022/11/01 04:31:22;;;;;;;11.98;5.10;;;13.40;99.90;;;12.53;100.00;97415.84;5111495;28;20412;-82
2022/11/01 04:33:49;;;;;;;10.27;4.53;;;13.30;99.90;;;12.53;100.00;97403.38;5110947;28;20392;-82
2022/11/01 04:36:14;;;;;;;14.55;4.38;;;13.30;99.90;;;12.52;100.00;97415.06;5111408;28;20395;-82
2022/11/01 04:38:40;;;;;;;12.10;5.20;;;13.30;99.90;;;12.54;100.00;97418.25;5111559;28;20950;-82
2022/11/01 04:41:06;;;;;;;10.67;4.43;;;13.40;99.90;;;12.57;100.00;97414.25;5111296;28;20396;-82
2022/11/01 04:43:33;;;;;;;8.73;4.37;;;13.40;99.90;;;12.59;100.00;97420.91;5111021;28;20399;-81
2022/11/01 04:45:59;;;;;;;9.00;4.32;;;13.40;99.90;;;12.56;100.00;97426.72;5111387;28;20393;-82
2022/11/01 04:48:26;;;;;;;12.98;4.68;;;13.40;99.90;;;12.59;100.00;97434.19;5111169;28;20403;-82
2022/11/01 04:50:52;;;;;;;10.55;4.30;;;13.40;99.90;;;12.59;100.00;97438.69;5110647;28;20427;-82
2022/11/01 04:53:18;;;;;;;12.70;4.43;;;13.40;99.90;;;12.60;100.00;97442.94;5110719;28;20404;-82
2022/11/01 04:55:44;;;;;;;15.10;4.50;;;13.40;99.90;;;12.61;100.00;97448.00;5109817;28;20416;-82
2022/11/01 04:58:10;;;;;;;12.52;4.63;;;13.40;99.90;;;12.64;100.00;97458.09;5111258;28;20489;-82
2022/11/01 05:00:37;;;;;;;14.50;4.30;;;13.50;99.90;;;12.83;100.00;97446.97;5111189;28;20735;-82
2022/11/01 05:03:06;;;;;;;16.48;5.18;;;13.50;99.90;;;12.71;100.00;97457.81;5110645;28;20434;-82
2022/11/01 05:05:34;;;;;;;9.23;3.45;;;13.60;99.90;;;12.77;100.00;97465.56;5110975;28;20400;-82
2022/11/01 05:08:01;;;;;;;9.00;3.63;;;13.60;99.90;;;12.82;100.00;97470.09;5110999;28;20396;-82
2022/11/01 05:10:28;;;;;;;14.98;4.40;;;13.60;99.90;;;12.75;100.00;97473.00;5111046;28;20420;-81
2022/11/01 05:12:54;;;;;;;12.80;3.72;;;13.60;99.90;;;12.99;100.00;97485.78;5110393;28;20447;-83
2022/11/01 05:15:20;;;;;;;10.85;4.15;;;13.70;99.90;;;12.99;100.00;97489.25;5110800;28;20401;-84
2022/11/01 05:17:47;;;;;;;10.02;3.67;;;13.80;99.90;;;13.10;100.00;97498.81;5110923;28;20396;-86
2022/11/01 05:20:13;;;;;;;8.63;3.40;;;13.90;99.90;;;13.08;100.00;97492.19;5110895;28;20434;-86
2022/11/01 05:22:39;;;;;;;6.25;3.08;;;13.90;99.90;;;13.33;100.00;97492.22;5110656;28;20392;-85
2022/11/01 05:25:08;;;;;;;6.47;3.42;;;14.00;99.90;;;13.30;100.00;97473.38;5111513;28;20901;-86
2022/11/01 05:27:34;;;;;;;7.78;3.08;;;14.10;99.90;;;13.28;100.00;97478.13;5115074;28;20420;-85
2022/11/01 05:30:00;;;;;;;5.93;2.88;;;14.10;99.90;;;13.33;100.00;97468.28;5115051;28;20416;-86
2022/11/01 05:32:26;;;;;;;8.63;2.80;;;14.10;99.90;;;13.28;100.00;97462.19;5114815;28;20510;-85
2022/11/01 05:34:53;;;;;;;11.13;3.25;;;14.10;99.90;;;13.28;100.00;97464.84;5114503;28;20412;-87
2022/11/01 05:37:19;;;;;;;7.53;2.90;;;14.10;99.90;;;13.36;100.00;97467.78;5115118;28;20489;-86
2022/11/01 05:39:45;;;;;;;3.72;2.45;;;14.10;99.90;;;13.26;100.00;97477.59;5114772;28;20439;-88
2022/11/01 05:42:11;;;;;;;9.15;2.85;;;14.10;99.90;;;13.13;100.00;97478.94;5114880;28;20431;-86
2022/11/01 05:44:37;;;;;;;6.35;2.78;;;14.00;99.90;;;13.10;100.00;97476.75;5114690;28;20447;-89
2022/11/01 05:47:04;;;;;;;5.80;2.90;;;13.90;99.90;;;12.99;100.00;97472.50;5115960;28;20403;-87
2022/11/01 05:49:30;;;;;;;4.75;2.60;;;13.80;99.90;;;12.94;100.00;97483.91;5114647;28;20446;-86
2022/11/01 05:51:57;;;;;;;5.30;2.80;;;13.70;99.90;;;12.87;100.00;97493.19;5114498;28;20412;-86
2022/11/01 05:54:23;;;;;;;6.10;2.75;;;13.70;99.90;;;12.77;100.00;97496.66;5114208;28;20435;-86
2022/11/01 05:56:49;;;;;;;5.93;2.95;;;13.60;99.90;;;12.71;100.00;97482.53;5114463;28;20435;-88
2022/11/01 05:59:15;;;;;;;5.00;2.80;;;13.50;99.90;;;12.66;100.00;97495.81;5114632;28;20499;-87
2022/11/01 06:01:41;;;;;;;7.63;3.13;;;13.50;99.90;;;12.59;100.00;97487.28;5114761;28;20428;-82
2022/11/01 06:04:07;;;;;;;5.13;2.67;;;13.40;99.90;;;12.59;100.00;97484.63;5113904;28;20861;-79
2022/11/01 06:06:33;;;;;;;7.03;2.70;;;13.40;99.90;;;12.77;100.00;97491.34;5114309;28;20456;-89
2022/11/01 06:09:00;;;;;;;7.57;2.97;;;13.50;99.90;;;12.68;100.00;97491.03;5115280;28;20404;-79
2022/11/01 06:11:26;;;;;;;8.23;2.90;;;13.50;99.90;;;12.61;100.00;97489.69;5114286;28;21060;-84
2022/11/01 06:13:53;;;;;;;5.90;2.97;;;13.50;99.90;;;12.55;100.00;97496.06;5113725;28;20408;-83
2022/11/01 06:16:19;;;;;;;5.45;2.50;;;13.40;99.90;;;12.52;100.00;97497.34;5114096;28;20491;-83
2022/11/01 06:18:45;;;;;;;4.65;2.53;;;13.40;99.90;;;12.50;100.00;97491.50;5114104;28;20402;-84
2022/11/01 06:21:11;;;;;;;4.32;2.70;;;13.40;99.90;;;12.51;100.00;97492.31;5113904;28;20393;-85
2022/11/01 06:23:37;;;;;;;3.93;2.53;;;13.30;99.90;;;12.50;100.00;97496.81;5112447;28;20495;-87
2022/11/01 06:26:05;;;;;;;9.67;2.90;;;13.30;99.90;;;12.52;100.00;97500.00;5114244;28;20531;-81
2022/11/01 06:28:31;;;;;;;7.57;2.60;;;13.40;99.90;;;12.56;100.00;97493.09;5114242;28;20453;-78
2022/11/01 06:30:59;;;;;;;36.35;3.42;;;13.40;99.90;;;12.52;100.00;97489.41;5109102;28;20908;-77
2022/11/01 06:33:25;;;;;;;5.47;2.33;;;13.30;99.90;;;12.52;100.00;97493.91;5096073;28;20429;-79
2022/11/01 06:35:51;;;;;;;5.07;2.00;;;13.30;99.90;;;12.54;100.00;97503.22;5113522;28;20447;-79
2022/11/01 06:38:17;;;;;;;3.85;1.83;;;13.30;99.90;;;12.55;100.00;97499.50;5112860;28;20400;-77
2022/11/01 06:40:44;;;;;;;2.20;1.85;;;13.40;99.90;;;12.56;100.00;97506.38;5113680;28;20392;-77
2022/11/01 06:43:12;;;;;;;3.30;1.80;;;13.40;99.90;;;12.60;100.00;97512.00;5107891;28;20462;-81
2022/11/01 06:45:38;;;;;;;2.28;1.63;;;13.40;99.90;;;12.55;100.00;97541.19;5103618;28;20885;-80
2022/11/01 06:48:04;;;;;;;4.50;1.60;;;13.40;99.90;;;12.50;100.00;97555.22;5106599;28;20439;-82
2022/11/01 06:50:30;;;;;;;4.72;2.40;;;13.30;99.90;;;12.48;100.00;97548.59;5113599;28;20763;-86
2022/11/01 06:52:57;;;;;;;4.82;1.70;;;13.30;99.90;;;12.49;100.00;97553.63;5113003;28;20865;-82
2022/11/01 06:55:23;;;;;;;4.50;1.90;;;13.30;99.90;;;12.52;100.00;97562.94;5104160;28;20423;-79
2022/11/01 06:57:53;;;;;;;3.03;1.40;;;13.30;99.90;;;12.51;100.00;97556.84;5105273;28;20410;-80
2022/11/01 07:00:21;;;;;;;2.63;1.45;;;13.30;99.90;;;12.58;100.00;97564.56;5103238;28;20456;-79
2022/11/01 07:02:47;;;;;;;5.38;1.60;;;13.40;99.90;;;12.62;100.00;97563.78;5095607;28;20902;-79
2022/11/01 07:05:13;;;;;;;3.00;1.60;;;13.40;99.90;;;12.66;100.00;97572.03;5108889;28;20397;-79
2022/11/01 07:07:40;;;;;;;2.55;1.33;;;13.50;99.90;;;12.76;100.00;97575.53;5095970;28;20392;-79
2022/11/01 07:10:08;;;;;;;3.20;1.60;;;13.60;99.90;;;12.77;100.00;97571.81;5106053;28;20471;-79
2022/11/01 07:12:33;;;;;;;3.95;1.40;;;13.60;99.90;;;12.82;100.00;97571.03;5102926;28;20731;-79
2022/11/01 07:14:59;;;;;;;1.60;1.40;;;13.60;99.90;;;12.81;100.00;97564.13;5107065;28;20495;-80
2022/11/01 07:17:27;;;;;;;2.40;1.40;;;13.60;99.90;;;12.82;100.00;97563.06;5102478;28;20394;-79
2022/11/01 07:19:53;;;;;;;2.05;1.40;;;13.60;99.90;;;12.88;100.00;97554.03;5101851;28;20406;-79
2022/11/01 07:22:19;;;;;;;2.40;1.53;;;13.70;99.90;;;12.82;100.00;97557.75;5103812;28;20501;-83
2022/11/01 07:24:44;;;;;;;2.53;1.20;;;13.70;99.90;;;12.85;100.00;97559.91;5102307;28;20396;-81
2022/11/01 07:27:10;;;;;;;1.80;1.40;;;13.60;99.90;;;12.82;100.00;97564.91;5105264;28;20506;-85
2022/11/01 07:29:38;;;;;;;1.98;1.38;;;13.60;99.90;;;12.86;100.00;97566.78;5099259;28;20416;-81
2022/11/01 07:32:04;;;;;;;1.48;1.30;;;13.60;99.90;;;12.84;100.00;97573.44;5102326;28;20917;-80
2022/11/01 07:34:31;;;;;;;1.90;1.55;;;13.60;99.90;;;13.01;100.00;97574.00;5102680;28;20423;-82
2022/11/01 07:36:57;;;;;;;1.90;1.45;;;13.80;99.90;;;12.97;100.00;97575.59;5103357;28;20411;-84
2022/11/01 07:39:24;;;;;;;2.92;1.20;;;13.70;99.90;;;12.96;100.00;97576.66;5095694;28;20417;-81
2022/11/01 07:41:51;;;;;;;1.80;1.38;;;13.70;99.90;;;12.99;100.00;97574.28;5101378;28;20461;-80
2022/11/01 07:44:17;;;;;;;1.85;1.30;;;13.80;99.90;;;13.09;100.00;97573.50;5098373;28;20402;-82
2022/11/01 07:46:43;;;;;;;3.15;1.40;;;13.90;99.90;;;13.06;100.00;97577.50;5108490;28;20408;-78
2022/11/01 07:49:08;;;;;;;2.53;1.37;;;13.90;99.90;;;13.05;100.00;97588.38;5105680;28;20440;-78
2022/11/01 07:51:36;;;;;;;2.17;1.27;;;13.80;99.90;;;13.02;100.00;97587.03;5104059;28;20419;-78
2022/11/01 07:54:02;;;;;;;2.08;1.30;;;13.80;99.90;;;13.01;100.00;97596.06;5102240;28;20412;-79
2022/11/01 07:56:28;;;;;;;1.60;1.23;;;13.80;99.90;;;12.98;100.00;97591.28;5100307;28;20413;-79
2022/11/01 07:58:54;;;;;;;3.00;1.42;;;13.80;99.90;;;13.13;100.00;97582.59;5106483;28;20441;-79
2022/11/01 08:01:20;;;;;;;2.97;1.00;;;13.90;99.90;;;13.22;100.00;97586.34;5106700;28;20386;-79
2022/11/01 08:03:48;;;;;;;3.53;1.20;;;14.00;99.90;;;13.16;100.00;97596.13;5106817;28;20873;-79
2022/11/01 08:06:13;;;;;;;1.60;1.10;;;14.00;99.90;;;13.28;100.00;97600.44;5094685;28;20909;-79
2022/11/01 08:08:41;;;;;;;2.63;1.20;;;14.00;99.90;;;13.40;100.00;97603.63;5104934;28;20433;-79
2022/11/01 08:11:07;;;;;;;1.60;1.10;;;14.10;99.90;;;13.31;100.00;97607.84;5097617;28;20795;-79
2022/11/01 08:13:33;;;;;;;1.40;1.20;;;14.10;99.90;;;13.31;100.00;97623.81;5096609;28;20769;-79
2022/11/01 08:16:01;;;;;;;2.40;1.30;;;14.10;99.90;;;13.31;100.00;97623.81;5103846;22;20557;-79
2022/11/01 08:18:27;;;;;;;1.20;1.10;;;14.10;99.90;;;13.42;100.00;97622.78;5067087;28;20400;-81
2022/11/01 08:20:53;;;;;;;2.13;1.20;;;14.10;99.90;;;13.37;100.00;97622.78;5067376;28;20798;-82
2022/11/01 08:23:20;;;;;;;2.55;1.10;;;14.10;99.90;;;13.53;100.00;97627.06;5063809;28;20487;-83
2022/11/01 08:25:48;;;;;;;1.90;1.08;;;14.20;99.90;;;13.41;100.00;97632.63;5057985;28;20394;-83
2022/11/01 08:28:17;;;;;;;1.73;1.23;;;14.20;99.90;;;13.74;100.00;97633.22;5040275;28;20406;-84
2022/11/01 08:30:52;;;;;;;2.90;1.10;;;14.40;99.90;;;13.73;100.00;97645.72;5041492;28;20922;-83
2022/11/01 08:33:18;;;;;;;1.70;1.10;;;14.40;99.90;;;13.71;100.00;97655.00;5040860;28;20413;-79
2022/11/01 08:35:44;;;;;;;2.22;1.30;;;14.40;99.90;;;13.62;100.00;97645.94;5030277;28;20517;-79
2022/11/01 08:38:10;;;;;;;2.03;1.20;;;14.40;99.90;;;13.81;100.00;97660.34;5030759;28;20464;-79
2022/11/01 08:40:36;;;;;;;1.88;1.25;;;14.40;99.90;;;13.67;100.00;97656.63;5032337;28;20656;-76
2022/11/01 08:43:04;;;;;;;3.35;1.23;;;14.40;99.90;;;13.71;100.00;97653.16;5049127;28;20968;-78
2022/11/01 08:45:30;;;;;;;2.22;1.30;;;14.50;99.90;;;13.72;100.00;97652.09;5050434;28;20404;-79
2022/11/01 08:47:57;;;;;;;1.20;1.10;;;14.50;99.90;;;13.71;100.00;97649.69;5050391;28;20429;-79
2022/11/01 08:50:23;;;;;;;1.13;1.02;;;14.50;99.90;;;13.71;100.00;97652.34;5050552;28;20413;-79
2022/11/01 08:52:49;;;;;;;1.25;1.15;;;14.50;99.90;;;13.76;100.00;97652.34;5049646;28;20893;-81
2022/11/01 08:55:15;;;;;;;1.40;1.10;;;14.50;99.90;;;13.78;100.00;97655.56;5050104;28;20400;-78
2022/11/01 08:57:41;;;;;;;1.70;1.20;;;14.50;99.90;;;13.71;100.00;97653.16;5050027;28;20444;-77
2022/11/01 09:00:10;;;;;;;1.15;1.05;;;14.50;99.90;;;13.71;100.00;97660.34;5050487;28;20436;-78
2022/11/01 09:02:36;;;;;;;1.80;1.00;;;14.50;99.90;;;13.70;100.00;97656.88;5049697;28;20462;-79
2022/11/01 09:05:05;;;;;;;2.37;0.87;;;14.50;99.90;;;13.68;100.00;97664.31;5047185;28;20400;-78
2022/11/01 09:07:31;;;;;;;0.82;0.82;;;14.40;99.90;;;13.66;100.00;97669.13;5050178;28;20398;-82
2022/11/01 09:09:57;;;;;;;1.33;1.07;;;14.50;99.90;;;13.65;100.00;97661.41;5050051;28;20428;-76
2022/11/01 09:12:25;;;;;;;1.20;1.10;;;14.40;99.90;;;13.63;100.00;97664.31;5053967;28;22224;-86
2022/11/01 09:14:51;;;;;;;1.30;1.20;;;14.40;99.90;;;13.67;100.00;97675.25;5054502;28;20451;-79
2022/11/01 09:17:18;;;;;;;1.60;0.95;;;14.40;99.90;;;13.67;100.00;97672.59;5049869;28;20413;-80
2022/11/01 09:19:44;;;;;;;1.10;1.00;;;14.40;99.90;;;13.69;100.00;97683.72;5049993;28;20401;-77
2022/11/01 09:22:10;;;;;;;1.70;1.23;;;14.40;99.90;;;13.66;100.00;97678.97;5049708;28;20938;-77
2022/11/01 09:24:36;;;;;;;1.27;1.17;;;14.50;99.90;;;13.71;100.00;97681.63;5049125;28;20409;-75
2022/11/01 09:27:02;;;;;;;2.45;1.42;;;14.40;99.90;;;13.69;100.00;97676.56;5049717;28;20484;-78
2022/11/01 09:29:28;;;;;;;1.08;0.98;;;14.40;99.90;;;13.81;100.00;97679.78;5048383;28;20409;-76
2022/11/01 09:31:54;;;;;;;1.45;1.25;;;14.50;99.90;;;13.86;100.00;97678.97;5049598;28;20926;-80
2022/11/01 09:34:21;;;;;;;2.47;1.27;;;14.60;99.90;;;13.91;100.00;97687.75;5048734;28;20488;-84
2022/11/01 09:36:47;;;;;;;1.35;1.25;;;14.60;99.90;;;14.09;100.00;97681.13;5049332;28;20877;-83
2022/11/01 09:39:16;;;;;;;1.42;1.05;;;14.70;99.90;;;14.15;100.00;97684.59;5049077;28;20437;-83
2022/11/01 09:41:46;;;;;;;1.05;0.90;;;14.90;99.90;;;14.28;100.00;97676.09;5049747;28;20818;-78
2022/11/01 09:44:17;;;;;;;3.45;1.08;;;15.00;99.90;;;14.59;100.00;97682.19;5049186;28;20407;-77
2022/11/01 09:46:48;;;;;;;1.43;1.07;;;15.20;99.90;;;15.09;100.00;97670.59;5047269;28;20411;-86
2022/11/01 09:49:24;;;;;;;2.20;1.10;;;15.50;99.90;;;15.69;100.00;97656.19;5054681;28;20960;-85
2022/11/01 09:51:50;;;;;;;1.05;0.85;;;16.00;99.90;;;15.95;100.00;97664.00;5050872;28;20421;-85
2022/11/01 09:54:20;;;;;;;1.90;1.08;;;16.40;99.90;;;16.19;100.00;97670.22;5050395;28;20405;-84
2022/11/01 09:57:00;;;;;;;1.45;1.00;;;16.60;99.90;;;16.11;100.00;97676.16;5049901;28;20389;-83
2022/11/01 09:59:34;;;;;;;3.05;1.10;;;16.70;99.90;;;16.07;100.00;97681.28;5050152;28;20401;-84
2022/11/01 10:02:36;;;;;;;2.50;1.10;;;16.60;99.90;;;15.83;100.00;97680.38;5066507;28;20428;-89
2022/11/01 10:05:38;;;;;;;2.60;1.15;;;16.60;99.90;;;15.68;100.00;97678.59;5052588;28;20469;-87
2022/11/01 10:08:15;;;;;;;2.83;1.00;;;16.30;99.90;;;15.97;100.00;97685.88;5041078;28;20409;-83
2022/11/01 10:10:51;;;;;;;1.70;1.00;;;16.40;99.90;;;15.80;100.00;97678.25;5054325;28;20485;-87
2022/11/01 10:13:36;;;;;;;2.40;0.90;;;16.50;99.90;;;15.83;100.00;97680.38;5054256;28;20402;-86
2022/11/01 10:16:09;;;;;;;2.60;1.02;;;16.40;99.90;;;15.93;100.00;97674.97;5068819;28;20417;-84
2022/11/01 10:18:44;;;;;;;3.90;1.30;;;16.60;99.90;;;15.94;100.00;97684.56;5068034;28;20411;-85
2022/11/01 10:21:15;;;;;;;1.50;1.10;;;16.60;99.90;;;16.04;100.00;97681.81;5052242;28;20439;-85
2022/11/01 10:23:46;;;;;;;1.85;1.20;;;16.60;99.90;;;15.97;100.00;97678.66;5049505;28;20413;-86